Citta Di Savona — IMDS — position and weather

sailwx.info

Track history (hours):
 
Tides and Currents Weather Stations Pressure Air Temp Water Temp Dewpoint Dewpoint Depression Visibility Wind Speed Wind Dir Waves Ship Positions

Citta Di Savona

Last reported at 2015-Sep-01 17:32 UTC. Time now 2015-Sep-01 18:12 UTC.
Position N 44°18' E 008°29'.

Length 31 m; draft 4.2 m.

Type: Tug. MMSI: 247402000.

Date/timePositionNaut miles runAvg speedWind from/ knotsBaromVisibWave heightAir tempDewpointWater temp
2015-Sep-01 17:32N 44°18' E 008°29'0 0.0
2015-Sep-01 16:32N 44°18' E 008°29'0 0.0
2015-Sep-01 15:32N 44°18' E 008°29'0 0.5
2015-Sep-01 14:33N 44°19' E 008°30'3 2.4
2015-Sep-01 13:28N 44°17' E 008°28'0 0.4
2015-Sep-01 12:28N 44°16' E 008°28'3 3.0
2015-Sep-01 11:33N 44°19' E 008°29'0 0.3
2015-Sep-01 10:32N 44°18' E 008°29'0 0.0
2015-Sep-01 09:20N 44°18' E 008°29'0 0.0
2015-Sep-01 08:32N 44°18' E 008°29'0 0.0
2015-Sep-01 07:32N 44°18' E 008°29'0 0.0
2015-Sep-01 06:29N 44°18' E 008°29'0 0.0
2015-Sep-01 05:23N 44°18' E 008°29'0 0.0
2015-Sep-01 04:29N 44°18' E 008°29'0 0.0
2015-Aug-31 21:29N 44°18' E 008°29'0 0.0
2015-Aug-31 20:29N 44°18' E 008°29'0 0.0
2015-Aug-31 19:29N 44°18' E 008°29'0 0.0
2015-Aug-31 18:29N 44°18' E 008°29'0 0.0
2015-Aug-31 17:29N 44°18' E 008°29'0 0.0
2015-Aug-31 16:29N 44°18' E 008°29'0 0.0
2015-Aug-31 15:23N 44°18' E 008°29'0 0.0
2015-Aug-31 14:29N 44°18' E 008°29'0 0.0
2015-Aug-31 13:29N 44°18' E 008°29'0 0.0
2015-Aug-31 12:29N 44°18' E 008°29'0 0.0
2015-Aug-31 06:05N 44°18' E 008°29'0 0.1
2015-Aug-31 05:34N 44°19' E 008°29'0 0.4
2015-Aug-31 04:33N 44°19' E 008°30'0 0.0
2015-Aug-30 17:32N 44°18' E 008°29'0 0.0
2015-Aug-30 16:20N 44°18' E 008°29'0 0.0
2015-Aug-30 15:32N 44°18' E 008°29'0 0.0
2015-Aug-30 14:20N 44°18' E 008°29'0 0.0
2015-Aug-30 13:32N 44°18' E 008°29'0 0.0
2015-Aug-30 09:20N 44°18' E 008°29'0 0.0
2015-Aug-30 08:14N 44°18' E 008°29'0 0.0
2015-Aug-30 07:32N 44°18' E 008°29'0 0.0
2015-Aug-30 06:32N 44°18' E 008°29'0 0.2
2015-Aug-30 05:31N 44°19' E 008°29'0 0.2
2015-Aug-30 04:28N 44°18' E 008°29'0 0.0
2015-Aug-30 03:28N 44°18' E 008°29'0 0.0
2015-Aug-30 02:28N 44°18' E 008°29'0 0.0
2015-Aug-30 01:28N 44°18' E 008°29'0 0.0
2015-Aug-30 00:28N 44°18' E 008°29'0 0.0
2015-Aug-29 11:17N 44°18' E 008°29'0 0.0
2015-Aug-29 10:29N 44°18' E 008°29'0 0.0
2015-Aug-29 09:32N 44°18' E 008°29'0 0.0
2015-Aug-29 08:32N 44°18' E 008°29'0 0.0
2015-Aug-29 07:32N 44°18' E 008°29'0 0.0
2015-Aug-29 06:32N 44°18' E 008°29'0 0.0
2015-Aug-29 05:32N 44°18' E 008°29'0 0.0
2015-Aug-29 04:32N 44°18' E 008°29'0 0.0
2015-Aug-29 03:32N 44°18' E 008°29'0 0.0
2015-Aug-29 02:26N 44°18' E 008°29'0 0.0
2015-Aug-29 01:32N 44°18' E 008°29'0 0.0
2015-Aug-29 00:32N 44°18' E 008°29'0 0.0
2015-Aug-28 17:11N 44°18' E 008°29'0 0.0
2015-Aug-28 15:13N 44°18' E 008°29'0 0.0
2015-Aug-28 14:25N 44°18' E 008°29'0 0.0
2015-Aug-28 13:31N 44°18' E 008°29'0 0.0
2015-Aug-28 12:19N 44°18' E 008°29'2 2.9
2015-Aug-28 11:30N 44°16' E 008°28'0 0.2
2015-Aug-28 10:33N 44°17' E 008°28'2 2.2
2015-Aug-28 09:33N 44°18' E 008°29'0 0.0
2015-Aug-28 08:33N 44°18' E 008°29'0 0.0
2015-Aug-28 07:33N 44°18' E 008°29'0 0.0
2015-Aug-28 06:33N 44°18' E 008°29'0 0.0
2015-Aug-28 05:33N 44°18' E 008°29'0 0.0
2015-Aug-28 04:33N 44°18' E 008°29'0 0.0
2015-Aug-27 09:31N 44°18' E 008°29'0 0.0
2015-Aug-27 08:31N 44°18' E 008°29'2 2.3
2015-Aug-27 07:34N 44°17' E 008°28'1 0.7
2015-Aug-27 06:30N 44°16' E 008°28'1 1.4
2015-Aug-27 05:33N 44°17' E 008°29'2 2.1
2015-Aug-27 04:31N 44°19' E 008°30'1 0.8
2015-Aug-27 03:31N 44°18' E 008°29'0 0.0
2015-Aug-27 02:31N 44°18' E 008°29'0 0.0
2015-Aug-27 01:31N 44°18' E 008°29'0 0.0
2015-Aug-27 00:31N 44°18' E 008°29'0 0.0
2015-Aug-26 23:31N 44°18' E 008°29'0 0.0
2015-Aug-26 22:31N 44°18' E 008°29'0 0.0
2015-Aug-26 12:30N 44°18' E 008°29'0 0.0
2015-Aug-26 11:30N 44°18' E 008°29'0 0.0
2015-Aug-26 10:30N 44°18' E 008°29'0 0.0
2015-Aug-26 09:30N 44°18' E 008°29'0 0.0
2015-Aug-26 08:24N 44°18' E 008°29'0 0.0
2015-Aug-26 07:30N 44°18' E 008°29'0 0.0
2015-Aug-26 06:30N 44°18' E 008°29'0 0.0
2015-Aug-26 05:30N 44°18' E 008°29'0 0.0
2015-Aug-26 04:30N 44°18' E 008°29'0 0.0
2015-Aug-26 03:30N 44°18' E 008°29'0 0.0
2015-Aug-26 02:30N 44°18' E 008°29'0 0.0
2015-Aug-26 01:30N 44°18' E 008°29'0 0.0
2015-Aug-26 00:33N 44°18' E 008°29'0 0.0
2015-Aug-25 11:29N 44°18' E 008°29'0 0.0
2015-Aug-25 08:05N 44°18' E 008°29'0 0.0
2015-Aug-25 07:23N 44°18' E 008°29'0 0.0
2015-Aug-25 06:29N 44°18' E 008°29'0 0.0
2015-Aug-25 05:29N 44°18' E 008°29'0 0.0
2015-Aug-25 04:29N 44°18' E 008°29'0 0.0
2015-Aug-25 03:29N 44°18' E 008°29'0 0.0
2015-Aug-25 02:29N 44°18' E 008°29'0 0.0
2015-Aug-25 01:29N 44°18' E 008°29'0 0.0
2015-Aug-25 00:29N 44°18' E 008°29'0 0.0
2015-Aug-24 23:29N 44°18' E 008°29'0 0.0
2015-Aug-24 22:29N 44°18' E 008°29'0 0.0
2015-Aug-24 21:29N 44°18' E 008°29'0 0.0
2015-Aug-24 20:29N 44°18' E 008°29'0 0.0
2015-Aug-24 19:29N 44°18' E 008°29'0 0.0
2015-Aug-24 18:23N 44°18' E 008°29'0 0.0
2015-Aug-24 17:29N 44°18' E 008°29'0 0.0
2015-Aug-24 16:29N 44°18' E 008°29'0 0.0
2015-Aug-24 15:29N 44°18' E 008°29'0 0.0
2015-Aug-24 14:23N 44°18' E 008°29'0 0.0
2015-Aug-24 13:32N 44°18' E 008°29'0 0.0
2015-Aug-24 12:11N 44°18' E 008°29'0 0.0
2015-Aug-24 07:32N 44°18' E 008°29'0 0.0
2015-Aug-24 06:32N 44°18' E 008°29'0 0.0
2015-Aug-24 05:32N 44°18' E 008°29'0 0.0
2015-Aug-24 04:26N 44°18' E 008°29'0 0.0
2015-Aug-23 17:29N 44°18' E 008°29'1 1.6
2015-Aug-23 16:34N 44°17' E 008°29'2 1.8
2015-Aug-23 15:32N 44°16' E 008°27'0 0.0
2015-Aug-23 14:29N 44°16' E 008°27'0 0.0
2015-Aug-23 13:32N 44°16' E 008°27'0 0.0
2015-Aug-23 12:32N 44°16' E 008°27'0 0.0
2015-Aug-23 11:32N 44°16' E 008°27'0 0.0
2015-Aug-23 10:32N 44°16' E 008°27'0 0.0
2015-Aug-23 09:26N 44°16' E 008°27'0 0.0
2015-Aug-23 08:32N 44°16' E 008°27'0 0.0
2015-Aug-23 07:32N 44°16' E 008°27'0 0.0
2015-Aug-23 06:32N 44°16' E 008°27'0 0.0
2015-Aug-23 05:32N 44°16' E 008°27'0 0.0
2015-Aug-23 04:26N 44°16' E 008°27'0 0.0
2015-Aug-22 22:07N 44°16' E 008°27'0 0.0
2015-Aug-22 21:34N 44°16' E 008°27'0 0.0
2015-Aug-22 20:31N 44°16' E 008°27'0 0.0
2015-Aug-22 19:34N 44°16' E 008°27'0 0.0
2015-Aug-22 18:31N 44°16' E 008°27'  
Track history (hours):
 
Tides and Currents Weather Stations Pressure Air Temp Water Temp Dewpoint Dewpoint Depression Visibility Wind Speed Wind Dir Waves Ship Positions

Citta Di Savona

Last reported at 2015-Sep-01 17:32 UTC. Time now 2015-Sep-01 18:12 UTC.
Position N 44°18' E 008°29'.

Length 31 m; draft 4.2 m.

Type: Tug. MMSI: 247402000.

Date/timePositionNaut miles runAvg speedWind from/ knotsBaromVisibWave heightAir tempDewpointWater temp
2015-Sep-01 17:32N 44°18' E 008°29'0 0.0
2015-Sep-01 16:32N 44°18' E 008°29'0 0.0
2015-Sep-01 15:32N 44°18' E 008°29'0 0.5
2015-Sep-01 14:33N 44°19' E 008°30'3 2.4
2015-Sep-01 13:28N 44°17' E 008°28'0 0.4
2015-Sep-01 12:28N 44°16' E 008°28'3 3.0
2015-Sep-01 11:33N 44°19' E 008°29'0 0.3
2015-Sep-01 10:32N 44°18' E 008°29'0 0.0
2015-Sep-01 09:20N 44°18' E 008°29'0 0.0
2015-Sep-01 08:32N 44°18' E 008°29'0 0.0
2015-Sep-01 07:32N 44°18' E 008°29'0 0.0
2015-Sep-01 06:29N 44°18' E 008°29'0 0.0
2015-Sep-01 05:23N 44°18' E 008°29'0 0.0
2015-Sep-01 04:29N 44°18' E 008°29'0 0.0
2015-Aug-31 21:29N 44°18' E 008°29'0 0.0
2015-Aug-31 20:29N 44°18' E 008°29'0 0.0
2015-Aug-31 19:29N 44°18' E 008°29'0 0.0
2015-Aug-31 18:29N 44°18' E 008°29'0 0.0
2015-Aug-31 17:29N 44°18' E 008°29'0 0.0
2015-Aug-31 16:29N 44°18' E 008°29'0 0.0
2015-Aug-31 15:23N 44°18' E 008°29'0 0.0
2015-Aug-31 14:29N 44°18' E 008°29'0 0.0
2015-Aug-31 13:29N 44°18' E 008°29'0 0.0
2015-Aug-31 12:29N 44°18' E 008°29'0 0.0
2015-Aug-31 06:05N 44°18' E 008°29'0 0.1
2015-Aug-31 05:34N 44°19' E 008°29'0 0.4
2015-Aug-31 04:33N 44°19' E 008°30'0 0.0
2015-Aug-30 17:32N 44°18' E 008°29'0 0.0
2015-Aug-30 16:20N 44°18' E 008°29'0 0.0
2015-Aug-30 15:32N 44°18' E 008°29'0 0.0
2015-Aug-30 14:20N 44°18' E 008°29'0 0.0
2015-Aug-30 13:32N 44°18' E 008°29'0 0.0
2015-Aug-30 09:20N 44°18' E 008°29'0 0.0
2015-Aug-30 08:14N 44°18' E 008°29'0 0.0
2015-Aug-30 07:32N 44°18' E 008°29'0 0.0
2015-Aug-30 06:32N 44°18' E 008°29'0 0.2
2015-Aug-30 05:31N 44°19' E 008°29'0 0.2
2015-Aug-30 04:28N 44°18' E 008°29'0 0.0
2015-Aug-30 03:28N 44°18' E 008°29'0 0.0
2015-Aug-30 02:28N 44°18' E 008°29'0 0.0
2015-Aug-30 01:28N 44°18' E 008°29'0 0.0
2015-Aug-30 00:28N 44°18' E 008°29'0 0.0
2015-Aug-29 11:17N 44°18' E 008°29'0 0.0
2015-Aug-29 10:29N 44°18' E 008°29'0 0.0
2015-Aug-29 09:32N 44°18' E 008°29'0 0.0
2015-Aug-29 08:32N 44°18' E 008°29'0 0.0
2015-Aug-29 07:32N 44°18' E 008°29'0 0.0
2015-Aug-29 06:32N 44°18' E 008°29'0 0.0
2015-Aug-29 05:32N 44°18' E 008°29'0 0.0
2015-Aug-29 04:32N 44°18' E 008°29'0 0.0
2015-Aug-29 03:32N 44°18' E 008°29'0 0.0
2015-Aug-29 02:26N 44°18' E 008°29'0 0.0
2015-Aug-29 01:32N 44°18' E 008°29'0 0.0
2015-Aug-29 00:32N 44°18' E 008°29'0 0.0
2015-Aug-28 17:11N 44°18' E 008°29'0 0.0
2015-Aug-28 15:13N 44°18' E 008°29'0 0.0
2015-Aug-28 14:25N 44°18' E 008°29'0 0.0
2015-Aug-28 13:31N 44°18' E 008°29'0 0.0
2015-Aug-28 12:19N 44°18' E 008°29'2 2.9
2015-Aug-28 11:30N 44°16' E 008°28'0 0.2
2015-Aug-28 10:33N 44°17' E 008°28'2 2.2
2015-Aug-28 09:33N 44°18' E 008°29'0 0.0
2015-Aug-28 08:33N 44°18' E 008°29'0 0.0
2015-Aug-28 07:33N 44°18' E 008°29'0 0.0
2015-Aug-28 06:33N 44°18' E 008°29'0 0.0
2015-Aug-28 05:33N 44°18' E 008°29'0 0.0
2015-Aug-28 04:33N 44°18' E 008°29'0 0.0
2015-Aug-27 09:31N 44°18' E 008°29'0 0.0
2015-Aug-27 08:31N 44°18' E 008°29'2 2.3
2015-Aug-27 07:34N 44°17' E 008°28'1 0.7
2015-Aug-27 06:30N 44°16' E 008°28'1 1.4
2015-Aug-27 05:33N 44°17' E 008°29'2 2.1
2015-Aug-27 04:31N 44°19' E 008°30'1 0.8
2015-Aug-27 03:31N 44°18' E 008°29'0 0.0
2015-Aug-27 02:31N 44°18' E 008°29'0 0.0
2015-Aug-27 01:31N 44°18' E 008°29'0 0.0
2015-Aug-27 00:31N 44°18' E 008°29'0 0.0
2015-Aug-26 23:31N 44°18' E 008°29'0 0.0
2015-Aug-26 22:31N 44°18' E 008°29'0 0.0
2015-Aug-26 12:30N 44°18' E 008°29'0 0.0
2015-Aug-26 11:30N 44°18' E 008°29'0 0.0
2015-Aug-26 10:30N 44°18' E 008°29'0 0.0
2015-Aug-26 09:30N 44°18' E 008°29'0 0.0
2015-Aug-26 08:24N 44°18' E 008°29'0 0.0
2015-Aug-26 07:30N 44°18' E 008°29'0 0.0
2015-Aug-26 06:30N 44°18' E 008°29'0 0.0
2015-Aug-26 05:30N 44°18' E 008°29'0 0.0
2015-Aug-26 04:30N 44°18' E 008°29'0 0.0
2015-Aug-26 03:30N 44°18' E 008°29'0 0.0
2015-Aug-26 02:30N 44°18' E 008°29'0 0.0
2015-Aug-26 01:30N 44°18' E 008°29'0 0.0
2015-Aug-26 00:33N 44°18' E 008°29'0 0.0
2015-Aug-25 11:29N 44°18' E 008°29'0 0.0
2015-Aug-25 08:05N 44°18' E 008°29'0 0.0
2015-Aug-25 07:23N 44°18' E 008°29'0 0.0
2015-Aug-25 06:29N 44°18' E 008°29'0 0.0
2015-Aug-25 05:29N 44°18' E 008°29'0 0.0
2015-Aug-25 04:29N 44°18' E 008°29'0 0.0
2015-Aug-25 03:29N 44°18' E 008°29'0 0.0
2015-Aug-25 02:29N 44°18' E 008°29'0 0.0
2015-Aug-25 01:29N 44°18' E 008°29'0 0.0
2015-Aug-25 00:29N 44°18' E 008°29'0 0.0
2015-Aug-24 23:29N 44°18' E 008°29'0 0.0
2015-Aug-24 22:29N 44°18' E 008°29'0 0.0
2015-Aug-24 21:29N 44°18' E 008°29'0 0.0
2015-Aug-24 20:29N 44°18' E 008°29'0 0.0
2015-Aug-24 19:29N 44°18' E 008°29'0 0.0
2015-Aug-24 18:23N 44°18' E 008°29'0 0.0
2015-Aug-24 17:29N 44°18' E 008°29'0 0.0
2015-Aug-24 16:29N 44°18' E 008°29'0 0.0
2015-Aug-24 15:29N 44°18' E 008°29'0 0.0
2015-Aug-24 14:23N 44°18' E 008°29'0 0.0
2015-Aug-24 13:32N 44°18' E 008°29'0 0.0
2015-Aug-24 12:11N 44°18' E 008°29'0 0.0
2015-Aug-24 07:32N 44°18' E 008°29'0 0.0
2015-Aug-24 06:32N 44°18' E 008°29'0 0.0
2015-Aug-24 05:32N 44°18' E 008°29'0 0.0
2015-Aug-24 04:26N 44°18' E 008°29'0 0.0
2015-Aug-23 17:29N 44°18' E 008°29'1 1.6
2015-Aug-23 16:34N 44°17' E 008°29'2 1.8
2015-Aug-23 15:32N 44°16' E 008°27'0 0.0
2015-Aug-23 14:29N 44°16' E 008°27'0 0.0
2015-Aug-23 13:32N 44°16' E 008°27'0 0.0
2015-Aug-23 12:32N 44°16' E 008°27'0 0.0
2015-Aug-23 11:32N 44°16' E 008°27'0 0.0
2015-Aug-23 10:32N 44°16' E 008°27'0 0.0
2015-Aug-23 09:26N 44°16' E 008°27'0 0.0
2015-Aug-23 08:32N 44°16' E 008°27'0 0.0
2015-Aug-23 07:32N 44°16' E 008°27'0 0.0
2015-Aug-23 06:32N 44°16' E 008°27'0 0.0
2015-Aug-23 05:32N 44°16' E 008°27'0 0.0
2015-Aug-23 04:26N 44°16' E 008°27'0 0.0
2015-Aug-22 22:07N 44°16' E 008°27'0 0.0
2015-Aug-22 21:34N 44°16' E 008°27'0 0.0
2015-Aug-22 20:31N 44°16' E 008°27'0 0.0
2015-Aug-22 19:34N 44°16' E 008°27'0 0.0
2015-Aug-22 18:31N 44°16' E 008°27'  

Dump ship's entire track history